createdAt,value
2019-03-11T00:00:30.022Z,1.30
2019-03-11T00:01:30.087Z,1.30
2019-03-11T00:02:30.015Z,1.30
2019-03-11T00:03:30.087Z,1.30
2019-03-11T00:04:30.088Z,1.30
2019-03-11T00:05:30.027Z,1.30
2019-03-11T00:06:30.089Z,1.30
2019-03-11T00:07:30.043Z,1.30
2019-03-11T00:08:30.100Z,1.30
2019-03-11T00:09:30.019Z,1.99
2019-03-11T00:10:30.090Z,1.99
2019-03-11T00:11:30.100Z,1.99
2019-03-11T00:12:30.020Z,1.99
2019-03-11T00:13:30.119Z,1.99
2019-03-11T00:14:30.023Z,1.99
2019-03-11T00:15:30.018Z,1.99
2019-03-11T00:16:30.030Z,1.99
2019-03-11T00:17:30.096Z,1.99
2019-03-11T00:18:30.100Z,1.99
2019-03-11T00:19:30.055Z,0.90
2019-03-11T00:20:30.101Z,0.90
2019-03-11T00:21:30.063Z,0.90
2019-03-11T00:22:30.051Z,0.90
2019-03-11T00:23:30.174Z,0.90
2019-03-11T00:24:30.052Z,0.90
2019-03-11T00:25:30.002Z,0.90
2019-03-11T00:26:30.137Z,0.90
2019-03-11T00:27:30.056Z,0.90
2019-03-11T00:28:30.121Z,0.90
2019-03-11T00:29:30.115Z,1.30
2019-03-11T00:30:30.105Z,1.30
2019-03-11T00:31:30.044Z,1.30
2019-03-11T00:32:30.038Z,1.30
2019-03-11T00:33:30.118Z,1.30
2019-03-11T00:34:30.047Z,1.30
2019-03-11T00:35:30.109Z,1.30
2019-03-11T00:36:30.044Z,1.30
2019-03-11T00:37:30.037Z,1.30
2019-03-11T00:38:30.116Z,1.30
2019-03-11T00:39:30.101Z,1.00
2019-03-11T00:40:30.015Z,1.00
2019-03-11T00:41:30.109Z,1.00
2019-03-11T00:42:30.103Z,1.00
2019-03-11T00:43:30.115Z,1.00
2019-03-11T00:44:30.114Z,1.00
2019-03-11T00:45:30.114Z,1.00
2019-03-11T00:46:30.050Z,1.00
2019-03-11T00:47:30.102Z,1.00
2019-03-11T00:48:30.023Z,1.00
2019-03-11T00:49:30.114Z,0.90
2019-03-11T00:50:30.076Z,0.90
2019-03-11T00:51:30.143Z,0.90
2019-03-11T00:52:30.190Z,0.90
2019-03-11T00:53:30.086Z,0.90
2019-03-11T00:54:30.079Z,0.90
2019-03-11T00:55:30.081Z,0.90
2019-03-11T00:56:30.084Z,0.90
2019-03-11T00:57:30.123Z,0.90
2019-03-11T00:58:30.149Z,0.90
2019-03-11T00:59:30.076Z,1.30
2019-03-11T01:00:30.139Z,1.30
2019-03-11T01:01:30.064Z,1.30
2019-03-11T01:02:30.143Z,1.30
2019-03-11T01:03:30.145Z,1.30
2019-03-11T01:04:30.080Z,1.30
2019-03-11T01:05:30.177Z,1.30
2019-03-11T01:06:30.090Z,1.30
2019-03-11T01:07:30.151Z,1.30
2019-03-11T01:08:30.039Z,1.30
2019-03-11T01:09:30.133Z,1.30
2019-03-11T01:10:30.067Z,1.30
2019-03-11T01:11:30.135Z,1.30
2019-03-11T01:12:30.071Z,1.30
2019-03-11T01:13:30.135Z,1.30
2019-03-11T01:14:30.069Z,1.30
2019-03-11T01:15:30.138Z,1.30
2019-03-11T01:16:30.065Z,1.30
2019-03-11T01:17:30.080Z,1.30
2019-03-11T01:18:30.140Z,1.30
2019-03-11T01:19:30.080Z,1.10
2019-03-11T01:20:30.083Z,1.10
2019-03-11T01:21:30.151Z,1.10
2019-03-11T01:22:30.113Z,1.10
2019-03-11T01:23:30.084Z,1.10
2019-03-11T01:24:30.156Z,1.10
2019-03-11T01:25:30.150Z,1.10
2019-03-11T01:26:30.161Z,1.10
2019-03-11T01:27:30.083Z,1.10
2019-03-11T01:28:30.157Z,1.10
2019-03-11T01:29:30.110Z,1.20
2019-03-11T01:30:30.149Z,1.20
2019-03-11T01:31:30.186Z,1.20
2019-03-11T01:32:30.107Z,1.20
2019-03-11T01:33:30.107Z,1.20
2019-03-11T01:34:30.162Z,1.20
2019-03-11T01:35:30.131Z,1.20
2019-03-11T01:36:30.093Z,1.20
2019-03-11T01:37:30.168Z,1.20
2019-03-11T01:38:30.168Z,1.20
2019-03-11T01:39:30.094Z,1.70
2019-03-11T01:40:30.173Z,1.70
2019-03-11T01:41:30.104Z,1.70
2019-03-11T01:42:30.093Z,1.70
2019-03-11T01:43:30.172Z,1.70
2019-03-11T01:44:30.167Z,1.70
2019-03-11T01:45:30.164Z,1.70
2019-03-11T01:46:30.107Z,1.70
2019-03-11T01:47:30.169Z,1.70
2019-03-11T01:48:30.087Z,1.70
2019-03-11T01:49:30.171Z,1.20
2019-03-11T01:50:30.184Z,1.20
2019-03-11T01:51:30.114Z,1.20
2019-03-11T01:52:30.104Z,1.20
2019-03-11T01:53:30.185Z,1.20
2019-03-11T01:54:30.109Z,1.20
2019-03-11T01:55:30.183Z,1.20
2019-03-11T01:56:30.192Z,1.20
2019-03-11T01:57:30.119Z,1.20
2019-03-11T01:58:30.124Z,1.20
2019-03-11T01:59:30.138Z,1.20
2019-03-11T02:00:30.111Z,2.99
2019-03-11T02:01:30.070Z,2.99
2019-03-11T02:02:30.110Z,2.99
2019-03-11T02:03:30.128Z,2.99
2019-03-11T02:04:30.188Z,2.99
2019-03-11T02:05:30.183Z,2.99
2019-03-11T02:06:30.198Z,2.99
2019-03-11T02:07:30.186Z,2.99
2019-03-11T02:08:30.190Z,2.99
2019-03-11T02:09:30.120Z,2.99
2019-03-11T02:10:30.170Z,2.30
2019-03-11T02:11:30.115Z,2.30
2019-03-11T02:12:30.121Z,2.30
2019-03-11T02:13:30.146Z,2.30
2019-03-11T02:14:30.086Z,2.30
2019-03-11T02:15:30.170Z,2.30
2019-03-11T02:16:30.111Z,2.30
2019-03-11T02:17:30.108Z,2.30
2019-03-11T02:18:30.184Z,2.30
2019-03-11T02:19:30.144Z,2.30
2019-03-11T02:20:30.194Z,1.90
2019-03-11T02:21:30.146Z,1.90
2019-03-11T02:22:30.218Z,1.90
2019-03-11T02:23:30.198Z,1.90
2019-03-11T02:24:30.210Z,1.90
2019-03-11T02:25:30.218Z,1.90
2019-03-11T02:26:30.216Z,1.90
2019-03-11T02:27:30.195Z,1.90
2019-03-11T02:28:30.130Z,1.90
2019-03-11T02:29:30.150Z,1.90
2019-03-11T02:30:30.133Z,1.20
2019-03-11T02:31:30.137Z,1.20
2019-03-11T02:32:30.213Z,1.20
2019-03-11T02:33:30.101Z,1.20
2019-03-11T02:34:30.209Z,1.20
2019-03-11T02:35:30.207Z,1.20
2019-03-11T02:36:30.136Z,1.20
2019-03-11T02:37:30.150Z,1.20
2019-03-11T02:38:30.213Z,1.20
2019-03-11T02:39:30.154Z,1.20
2019-03-11T02:40:30.122Z,1.10
2019-03-11T02:41:30.201Z,1.10
2019-03-11T02:42:30.086Z,1.10
2019-03-11T02:43:30.102Z,1.10
2019-03-11T02:44:30.198Z,1.10
2019-03-11T02:45:30.098Z,1.10
2019-03-11T02:46:30.114Z,1.10
2019-03-11T02:47:30.097Z,1.10
2019-03-11T02:48:30.112Z,1.10
2019-03-11T02:49:30.111Z,1.10
2019-03-11T02:50:30.146Z,1.20
2019-03-11T02:51:30.181Z,1.20
2019-03-11T02:52:30.242Z,1.20
2019-03-11T02:53:30.154Z,1.20
2019-03-11T02:54:30.163Z,1.20
2019-03-11T02:55:30.161Z,1.20
2019-03-11T02:56:30.219Z,1.20
2019-03-11T02:57:30.220Z,1.20
2019-03-11T02:58:30.223Z,1.20
2019-03-11T02:59:30.237Z,1.20
2019-03-11T03:00:30.220Z,1.30
2019-03-11T03:01:30.166Z,1.30
2019-03-11T03:02:30.148Z,1.30
2019-03-11T03:03:30.219Z,1.30
2019-03-11T03:04:34.630Z,1.30
2019-03-11T03:05:30.121Z,1.30
2019-03-11T03:06:30.159Z,1.30
2019-03-11T03:07:30.158Z,1.30
2019-03-11T03:08:30.168Z,1.30
2019-03-11T03:09:31.892Z,1.30
2019-03-11T03:10:30.234Z,0.80
2019-03-11T03:11:30.234Z,0.80
2019-03-11T03:12:30.203Z,0.80
2019-03-11T03:13:30.245Z,0.80
2019-03-11T03:14:30.134Z,0.80
2019-03-11T03:15:30.162Z,0.80
2019-03-11T03:16:30.165Z,0.80
2019-03-11T03:17:30.226Z,0.80
2019-03-11T03:18:30.242Z,0.80
2019-03-11T03:19:30.167Z,0.80
2019-03-11T03:20:30.176Z,0.50
2019-03-11T03:21:30.243Z,0.50
2019-03-11T03:22:30.186Z,0.50
2019-03-11T03:23:30.172Z,0.50
2019-03-11T03:24:30.247Z,0.50
2019-03-11T03:25:34.551Z,0.50
2019-03-11T03:26:30.294Z,0.50
2019-03-11T03:27:30.249Z,0.50
2019-03-11T03:28:30.182Z,0.50
2019-03-11T03:29:30.180Z,0.50
2019-03-11T03:30:30.259Z,0.50
2019-03-11T03:31:30.254Z,0.50
2019-03-11T03:32:30.259Z,0.50
2019-03-11T03:33:30.257Z,0.50
2019-03-11T03:34:30.276Z,0.50
2019-03-11T03:35:30.194Z,0.50
2019-03-11T03:36:30.244Z,0.50
2019-03-11T03:37:30.225Z,0.50
2019-03-11T03:38:31.400Z,0.50
2019-03-11T03:39:30.194Z,0.50
2019-03-11T03:40:30.249Z,0.50
2019-03-11T03:41:30.182Z,0.50
2019-03-11T03:42:30.267Z,0.50
2019-03-11T03:43:30.192Z,0.50
2019-03-11T03:44:30.211Z,0.50
2019-03-11T03:45:30.321Z,0.50
2019-03-11T03:46:30.266Z,0.50
2019-03-11T03:47:30.203Z,0.50
2019-03-11T03:48:30.351Z,0.50
2019-03-11T03:49:30.263Z,0.50
2019-03-11T03:50:30.249Z,0.40
2019-03-11T03:51:30.261Z,0.40
2019-03-11T03:52:30.230Z,0.40
2019-03-11T03:53:30.264Z,0.40
2019-03-11T03:54:30.260Z,0.40
2019-03-11T03:55:30.220Z,0.40
2019-03-11T03:56:30.206Z,0.40
2019-03-11T03:57:30.224Z,0.40
2019-03-11T03:58:30.287Z,0.40
2019-03-11T03:59:30.323Z,0.40
2019-03-11T04:00:30.222Z,0.50
2019-03-11T04:01:30.206Z,0.50
2019-03-11T04:02:30.222Z,0.50
2019-03-11T04:03:30.210Z,0.50
2019-03-11T04:04:30.273Z,0.50
2019-03-11T04:05:30.276Z,0.50
2019-03-11T04:06:30.275Z,0.50
2019-03-11T04:07:30.275Z,0.50
2019-03-11T04:08:30.286Z,0.50
2019-03-11T04:09:30.275Z,0.50
2019-03-11T04:10:32.721Z,0.30
2019-03-11T04:11:30.210Z,0.30
2019-03-11T04:12:30.272Z,0.30
2019-03-11T04:13:30.229Z,0.30
2019-03-11T04:14:30.203Z,0.30
2019-03-11T04:15:30.219Z,0.30
2019-03-11T04:16:30.207Z,0.30
2019-03-11T04:17:30.207Z,0.30
2019-03-11T04:18:30.290Z,0.30
2019-03-11T04:19:30.208Z,0.30
2019-03-11T04:20:30.209Z,0.60
2019-03-11T04:21:30.294Z,0.60
2019-03-11T04:22:30.211Z,0.60
2019-03-11T04:23:30.279Z,0.60
2019-03-11T04:24:30.216Z,0.60
2019-03-11T04:25:30.221Z,0.60
2019-03-11T04:26:30.231Z,0.60
2019-03-11T04:27:30.284Z,0.60
2019-03-11T04:28:30.289Z,0.60
2019-03-11T04:29:30.214Z,0.60
2019-03-11T04:30:30.289Z,0.50
2019-03-11T04:31:30.234Z,0.50
2019-03-11T04:32:30.290Z,0.50
2019-03-11T04:33:30.232Z,0.50
2019-03-11T04:34:30.238Z,0.50
2019-03-11T04:35:30.311Z,0.50
2019-03-11T04:36:30.231Z,0.50
2019-03-11T04:37:30.222Z,0.50
2019-03-11T04:38:30.251Z,0.50
2019-03-11T04:39:30.306Z,0.50
2019-03-11T04:40:30.285Z,1.50
2019-03-11T04:41:30.207Z,1.50
2019-03-11T04:42:30.210Z,1.50
2019-03-11T04:43:30.287Z,1.50
2019-03-11T04:44:30.227Z,1.50
2019-03-11T04:45:30.316Z,1.50
2019-03-11T04:46:30.288Z,1.50
2019-03-11T04:47:30.217Z,1.50
2019-03-11T04:48:30.288Z,1.50
2019-03-11T04:49:30.232Z,1.50
2019-03-11T04:50:30.301Z,2.80
2019-03-11T04:51:30.304Z,2.80
2019-03-11T04:52:30.311Z,2.80
2019-03-11T04:53:30.302Z,2.80
2019-03-11T04:54:30.194Z,2.80
2019-03-11T04:55:30.302Z,2.80
2019-03-11T04:56:30.244Z,2.80
2019-03-11T04:57:30.312Z,2.80
2019-03-11T04:58:30.195Z,2.80
2019-03-11T04:59:30.243Z,2.80
2019-03-11T05:00:30.235Z,3.70
2019-03-11T05:01:30.238Z,3.70
2019-03-11T05:02:30.274Z,3.70
2019-03-11T05:03:30.310Z,3.70
2019-03-11T05:04:30.248Z,3.70
2019-03-11T05:05:30.253Z,3.70
2019-03-11T05:06:30.247Z,3.70
2019-03-11T05:07:30.255Z,3.70
2019-03-11T05:08:30.197Z,3.70
2019-03-11T05:09:30.314Z,3.70
2019-03-11T05:10:30.289Z,4.00
2019-03-11T05:11:30.262Z,4.00
2019-03-11T05:12:30.174Z,4.00
2019-03-11T05:13:30.156Z,4.00
2019-03-11T05:14:30.260Z,4.00
2019-03-11T05:15:30.287Z,4.00
2019-03-11T05:16:30.269Z,4.00
2019-03-11T05:17:30.283Z,4.00
2019-03-11T05:18:30.195Z,4.00
2019-03-11T05:19:30.238Z,4.00
2019-03-11T05:20:30.243Z,3.60
2019-03-11T05:21:30.311Z,3.60
2019-03-11T05:22:30.359Z,3.60
2019-03-11T05:23:30.312Z,3.60
2019-03-11T05:24:30.269Z,3.60
2019-03-11T05:25:30.319Z,3.60
2019-03-11T05:26:30.249Z,3.60
2019-03-11T05:27:30.315Z,3.60
2019-03-11T05:28:30.246Z,3.60
2019-03-11T05:29:30.318Z,3.60
2019-03-11T05:30:30.246Z,4.90
2019-03-11T05:31:30.326Z,4.90
2019-03-11T05:32:30.244Z,4.90
2019-03-11T05:33:30.319Z,4.90
2019-03-11T05:34:30.254Z,4.90
2019-03-11T05:35:30.332Z,4.90
2019-03-11T05:36:30.260Z,4.90
2019-03-11T05:37:30.326Z,4.90
2019-03-11T05:38:30.252Z,4.90
2019-03-11T05:39:30.325Z,4.90
2019-03-11T05:40:30.269Z,4.99
2019-03-11T05:41:30.345Z,4.99
2019-03-11T05:42:30.264Z,4.99
2019-03-11T05:43:30.266Z,4.99
2019-03-11T05:44:30.265Z,4.99
2019-03-11T05:45:30.344Z,4.99
2019-03-11T05:46:30.280Z,4.99
2019-03-11T05:47:30.272Z,4.99
2019-03-11T05:48:30.270Z,4.99
2019-03-11T05:49:30.343Z,4.99
2019-03-11T05:50:30.297Z,3.60
2019-03-11T05:51:31.776Z,3.60
2019-03-11T05:52:30.337Z,3.60
2019-03-11T05:53:30.263Z,3.60
2019-03-11T05:54:30.339Z,3.60
2019-03-11T05:55:30.265Z,3.60
2019-03-11T05:56:30.366Z,3.60
2019-03-11T05:57:30.337Z,3.60
2019-03-11T05:58:30.262Z,3.60
2019-03-11T05:59:30.348Z,3.60
2019-03-11T06:00:30.278Z,3.30
2019-03-11T06:01:30.305Z,3.30
2019-03-11T06:02:30.350Z,3.30
2019-03-11T06:03:30.305Z,3.30
2019-03-11T06:04:30.376Z,3.30
2019-03-11T06:05:30.281Z,3.30
2019-03-11T06:06:30.279Z,3.30
2019-03-11T06:07:30.381Z,3.30
2019-03-11T06:08:30.287Z,3.30
2019-03-11T06:09:30.359Z,3.30
2019-03-11T06:10:30.305Z,2.60
2019-03-11T06:11:30.353Z,2.60
2019-03-11T06:12:30.364Z,2.60
2019-03-11T06:13:35.902Z,2.60
2019-03-11T06:14:30.289Z,2.60
2019-03-11T06:15:30.291Z,2.60
2019-03-11T06:16:30.292Z,2.60
2019-03-11T06:17:30.311Z,2.60
2019-03-11T06:18:30.356Z,2.60
2019-03-11T06:19:30.361Z,2.60
2019-03-11T06:20:30.261Z,2.20
2019-03-11T06:21:30.251Z,2.20
2019-03-11T06:22:30.313Z,2.20
2019-03-11T06:23:30.278Z,2.20
2019-03-11T06:24:30.635Z,2.20
2019-03-11T06:25:30.285Z,2.20
2019-03-11T06:26:30.311Z,2.20
2019-03-11T06:27:30.333Z,2.20
2019-03-11T06:28:30.270Z,2.20
2019-03-11T06:29:30.993Z,2.20
2019-03-11T06:30:30.377Z,2.90
2019-03-11T06:31:30.371Z,2.90
2019-03-11T06:32:30.367Z,2.90
2019-03-11T06:33:30.375Z,2.90
2019-03-11T06:34:30.378Z,2.90
2019-03-11T06:35:30.439Z,2.90
2019-03-11T06:36:30.302Z,2.90
2019-03-11T06:37:30.493Z,2.90
2019-03-11T06:38:30.313Z,2.90
2019-03-11T06:39:30.374Z,2.90
2019-03-11T06:40:30.393Z,3.99
2019-03-11T06:41:30.319Z,3.99
2019-03-11T06:42:30.362Z,3.99
2019-03-11T06:43:30.402Z,3.99
2019-03-11T06:44:30.364Z,3.99
2019-03-11T06:45:30.371Z,3.99
2019-03-11T06:46:30.368Z,3.99
2019-03-11T06:47:30.250Z,3.99
2019-03-11T06:48:30.297Z,3.99
2019-03-11T06:49:30.315Z,3.99
2019-03-11T06:50:30.318Z,2.50
2019-03-11T06:51:30.319Z,2.50
2019-03-11T06:52:30.315Z,2.50
2019-03-11T06:53:30.333Z,2.50
2019-03-11T06:54:30.326Z,2.50
2019-03-11T06:55:30.344Z,2.50
2019-03-11T06:56:30.322Z,2.50
2019-03-11T06:57:30.377Z,2.50
2019-03-11T06:58:30.388Z,2.50
2019-03-11T06:59:30.322Z,2.50
2019-03-11T07:00:30.384Z,2.50
2019-03-11T07:01:30.361Z,2.40
2019-03-11T07:02:30.388Z,2.40
2019-03-11T07:03:30.284Z,2.40
2019-03-11T07:04:30.387Z,2.40
2019-03-11T07:05:30.389Z,2.40
2019-03-11T07:06:30.397Z,2.40
2019-03-11T07:07:30.327Z,2.40
2019-03-11T07:08:30.323Z,2.40
2019-03-11T07:09:30.454Z,2.40
2019-03-11T07:10:30.395Z,2.40
2019-03-11T07:11:30.354Z,2.80
2019-03-11T07:12:30.340Z,2.80
2019-03-11T07:13:30.297Z,2.80
2019-03-11T07:14:30.338Z,2.80
2019-03-11T07:15:30.358Z,2.80
2019-03-11T07:16:30.392Z,2.80
2019-03-11T07:17:30.269Z,2.80
2019-03-11T07:18:30.425Z,2.80
2019-03-11T07:19:30.307Z,2.80
2019-03-11T07:20:30.292Z,2.80
2019-03-11T07:21:30.338Z,3.60
2019-03-11T07:22:30.412Z,3.60
2019-03-11T07:23:30.469Z,3.60
2019-03-11T07:24:30.350Z,3.60
2019-03-11T07:25:30.346Z,3.60
2019-03-11T07:26:30.305Z,3.60
2019-03-11T07:27:30.426Z,3.60
2019-03-11T07:28:30.412Z,3.60
2019-03-11T07:29:30.418Z,3.60
2019-03-11T07:30:30.347Z,3.60
2019-03-11T07:31:30.407Z,2.70
2019-03-11T07:32:30.409Z,2.70
2019-03-11T07:33:30.408Z,2.70
2019-03-11T07:34:30.423Z,2.70
2019-03-11T07:35:30.349Z,2.70
2019-03-11T07:36:30.348Z,2.70
2019-03-11T07:37:30.348Z,2.70
2019-03-11T07:38:30.415Z,2.70
2019-03-11T07:39:32.538Z,2.70
2019-03-11T07:40:30.655Z,2.70
2019-03-11T07:41:30.338Z,2.70
2019-03-11T07:42:30.408Z,2.70
2019-03-11T07:43:30.422Z,2.70
2019-03-11T07:44:30.375Z,2.70
2019-03-11T07:45:30.293Z,2.70
2019-03-11T07:46:30.346Z,2.70
2019-03-11T07:47:30.371Z,2.70
2019-03-11T07:48:30.407Z,2.70
2019-03-11T07:49:30.415Z,2.70
2019-03-11T07:50:30.414Z,2.70
2019-03-11T07:51:30.357Z,3.30
2019-03-11T07:52:30.434Z,3.30
2019-03-11T07:53:30.365Z,3.30
2019-03-11T07:54:35.825Z,3.30
2019-03-11T07:55:30.425Z,3.30
2019-03-11T07:56:30.427Z,3.30
2019-03-11T07:58:30.361Z,3.30
2019-03-11T07:59:30.385Z,3.30
2019-03-11T08:00:30.371Z,3.30
2019-03-11T08:01:30.332Z,2.80
2019-03-11T08:02:30.400Z,2.80
2019-03-11T08:03:30.374Z,2.80
2019-03-11T08:04:30.415Z,2.80
2019-03-11T08:05:30.432Z,2.80
2019-03-11T08:06:30.406Z,2.80
2019-03-11T08:07:30.434Z,2.80
2019-03-11T08:08:30.375Z,2.80
2019-03-11T08:09:37.756Z,2.80
2019-03-11T08:10:30.456Z,2.80
2019-03-11T08:11:30.505Z,2.80
2019-03-11T08:12:30.372Z,2.80
2019-03-11T08:13:30.440Z,2.80
2019-03-11T08:14:30.371Z,2.80
2019-03-11T08:15:30.450Z,2.80
2019-03-11T08:16:30.388Z,2.80
2019-03-11T08:17:30.377Z,2.80
2019-03-11T08:18:34.962Z,2.80
2019-03-11T08:19:30.445Z,2.80
2019-03-11T08:20:30.376Z,2.80
2019-03-11T08:21:30.335Z,3.99
2019-03-11T08:22:30.442Z,3.99
2019-03-11T08:23:30.390Z,3.99
2019-03-11T08:24:30.449Z,3.99
2019-03-11T08:25:30.447Z,3.99
2019-03-11T08:26:30.448Z,3.99
2019-03-11T08:27:30.450Z,3.99
2019-03-11T08:28:30.457Z,3.99
2019-03-11T08:29:30.385Z,3.99
2019-03-11T08:30:30.450Z,3.99
2019-03-11T08:31:30.443Z,1.90
2019-03-11T08:32:30.355Z,1.90
2019-03-11T08:33:30.382Z,1.90
2019-03-11T08:34:30.327Z,1.90
2019-03-11T08:35:30.343Z,1.90
2019-03-11T08:36:30.383Z,1.90
2019-03-11T08:37:30.448Z,1.90
2019-03-11T08:38:30.452Z,1.90
2019-03-11T08:39:30.449Z,1.90
2019-03-11T08:40:30.386Z,1.90
2019-03-11T08:41:30.467Z,1.90
2019-03-11T08:42:30.461Z,1.90
2019-03-11T08:43:30.461Z,1.90
2019-03-11T08:44:30.392Z,1.90
2019-03-11T08:45:30.557Z,1.90
2019-03-11T08:46:30.472Z,1.90
2019-03-11T08:47:30.394Z,1.90
2019-03-11T08:48:30.462Z,1.90
2019-03-11T08:49:30.468Z,1.90
2019-03-11T08:50:30.398Z,1.90
2019-03-11T08:51:30.459Z,2.40
2019-03-11T08:52:30.362Z,2.40
2019-03-11T08:53:30.455Z,2.40
2019-03-11T08:54:30.458Z,2.40
2019-03-11T08:55:30.406Z,2.40
2019-03-11T08:56:30.450Z,2.40
2019-03-11T08:57:30.352Z,2.40
2019-03-11T08:58:30.363Z,2.40
2019-03-11T08:59:30.397Z,2.40
2019-03-11T09:00:30.372Z,2.40
2019-03-11T09:01:30.404Z,1.80
2019-03-11T09:02:30.459Z,1.80
2019-03-11T09:03:30.460Z,1.80
2019-03-11T09:04:30.466Z,1.80
2019-03-11T09:05:30.470Z,1.80
2019-03-11T09:06:30.460Z,1.80
2019-03-11T09:07:30.508Z,1.80
2019-03-11T09:08:30.377Z,1.80
2019-03-11T09:09:31.676Z,1.80
2019-03-11T09:10:30.381Z,1.80
2019-03-11T09:11:30.466Z,4.00
2019-03-11T09:12:30.451Z,4.00
2019-03-11T09:13:30.685Z,4.00
2019-03-11T09:14:30.389Z,4.00
2019-03-11T09:15:30.389Z,4.00
2019-03-11T09:16:30.442Z,4.00
2019-03-11T09:17:30.480Z,4.00
2019-03-11T09:18:30.357Z,4.00
2019-03-11T09:19:30.478Z,4.00
2019-03-11T09:20:30.488Z,4.00
2019-03-11T09:21:30.486Z,3.60
2019-03-11T09:22:30.495Z,3.60
2019-03-11T09:23:30.486Z,3.60
2019-03-11T09:24:30.426Z,3.60
2019-03-11T09:25:30.500Z,3.60
2019-03-11T09:26:30.504Z,3.60
2019-03-11T09:27:30.486Z,3.60
2019-03-11T09:28:30.562Z,3.60
2019-03-11T09:29:30.429Z,3.60
2019-03-11T09:30:30.502Z,3.60
2019-03-11T09:31:30.427Z,2.70
2019-03-11T09:32:30.492Z,2.70
2019-03-11T09:33:30.411Z,2.70
2019-03-11T09:34:30.455Z,2.70
2019-03-11T09:35:30.382Z,2.70
2019-03-11T09:36:30.493Z,2.70
2019-03-11T09:37:30.376Z,2.70
2019-03-11T09:38:30.495Z,2.70
2019-03-11T09:39:30.487Z,2.70
2019-03-11T09:40:30.419Z,2.70
2019-03-11T09:41:30.408Z,2.40
2019-03-11T09:42:30.495Z,2.40
2019-03-11T09:43:30.518Z,2.40
2019-03-11T09:44:30.439Z,2.40
2019-03-11T09:45:30.503Z,2.40
2019-03-11T09:46:30.423Z,2.40
2019-03-11T09:47:30.489Z,2.40
2019-03-11T09:48:30.491Z,2.40
2019-03-11T09:49:30.414Z,2.40
2019-03-11T09:50:30.467Z,2.40
2019-03-11T09:51:30.415Z,3.50
2019-03-11T09:52:30.515Z,3.50
2019-03-11T09:53:30.499Z,3.50
2019-03-11T09:54:30.500Z,3.50
2019-03-11T09:55:30.385Z,3.50
2019-03-11T09:56:30.506Z,3.50
2019-03-11T09:57:30.433Z,3.50
2019-03-11T09:58:30.505Z,3.50
2019-03-11T09:59:30.440Z,3.50
2019-03-11T10:00:30.476Z,3.50
2019-03-11T10:01:30.452Z,3.00
2019-03-11T10:02:30.409Z,3.00
2019-03-11T10:03:30.501Z,3.00
2019-03-11T10:04:30.507Z,3.00
2019-03-11T10:05:30.500Z,3.00
2019-03-11T10:06:30.436Z,3.00
2019-03-11T10:07:30.496Z,3.00
2019-03-11T10:08:30.460Z,3.00
2019-03-11T10:09:30.514Z,3.00
2019-03-11T10:10:30.417Z,3.00
2019-03-11T10:11:30.460Z,3.70
2019-03-11T10:12:30.526Z,3.70
2019-03-11T10:13:30.458Z,3.70
2019-03-11T10:14:30.462Z,3.70
2019-03-11T10:15:30.527Z,3.70
2019-03-11T10:16:30.527Z,3.70
2019-03-11T10:17:30.459Z,3.70
2019-03-11T10:18:30.530Z,3.70
2019-03-11T10:19:30.539Z,3.70
2019-03-11T10:20:30.467Z,3.70
2019-03-11T10:21:30.482Z,3.00
2019-03-11T10:22:30.435Z,3.00
2019-03-11T10:23:32.341Z,3.00
2019-03-11T10:24:30.469Z,3.00
2019-03-11T10:25:30.481Z,3.00
2019-03-11T10:26:30.474Z,3.00
2019-03-11T10:27:30.385Z,3.00
2019-03-11T10:28:30.393Z,3.00
2019-03-11T10:29:30.393Z,3.00
2019-03-11T10:30:30.393Z,3.00
2019-03-11T10:31:30.470Z,2.30
2019-03-11T10:32:30.544Z,2.30
2019-03-11T10:33:30.476Z,2.30
2019-03-11T10:34:30.485Z,2.30
2019-03-11T10:35:32.387Z,2.30
2019-03-11T10:36:30.472Z,2.30
2019-03-11T10:37:30.492Z,2.30
2019-03-11T10:38:30.510Z,2.30
2019-03-11T10:39:30.502Z,2.30
2019-03-11T10:40:30.553Z,2.30
2019-03-11T10:41:30.544Z,2.60
2019-03-11T10:42:30.534Z,2.60
2019-03-11T10:43:30.550Z,2.60
2019-03-11T10:44:30.485Z,2.60
2019-03-11T10:45:32.167Z,2.60
2019-03-11T10:46:30.550Z,2.60
2019-03-11T10:47:30.477Z,2.60
2019-03-11T10:48:37.056Z,2.60
2019-03-11T10:49:30.493Z,2.60
2019-03-11T10:50:30.475Z,2.60
2019-03-11T10:51:30.443Z,2.20
2019-03-11T10:52:30.535Z,2.20
2019-03-11T10:53:30.471Z,2.20
2019-03-11T10:54:30.492Z,2.20
2019-03-11T10:55:30.531Z,2.20
2019-03-11T10:56:30.510Z,2.20
2019-03-11T10:57:30.487Z,2.20
2019-03-11T10:58:30.491Z,2.20
2019-03-11T10:59:30.536Z,2.20
2019-03-11T11:00:30.455Z,2.20
2019-03-11T11:01:30.429Z,1.90
2019-03-11T11:02:30.463Z,1.90
2019-03-11T11:03:30.987Z,1.90
2019-03-11T11:04:30.465Z,1.90
2019-03-11T11:05:30.553Z,1.90
2019-03-11T11:06:30.455Z,1.90
2019-03-11T11:07:30.486Z,1.90
2019-03-11T11:08:30.463Z,1.90
2019-03-11T11:09:30.505Z,1.90
2019-03-11T11:10:30.578Z,1.90
2019-03-11T11:11:30.505Z,2.50
2019-03-11T11:12:30.566Z,2.50
2019-03-11T11:13:30.566Z,2.50
2019-03-11T11:14:30.504Z,2.50
2019-03-11T11:15:30.500Z,2.50
2019-03-11T11:16:30.503Z,2.50
2019-03-11T11:17:30.505Z,2.50
2019-03-11T11:18:30.502Z,2.50
2019-03-11T11:19:30.574Z,2.50
2019-03-11T11:20:30.575Z,2.50
2019-03-11T11:21:30.580Z,2.99
2019-03-11T11:22:30.502Z,2.99
2019-03-11T11:23:30.570Z,2.99
2019-03-11T11:24:30.573Z,2.99
2019-03-11T11:25:30.534Z,2.99
2019-03-11T11:26:30.518Z,2.99
2019-03-11T11:27:30.576Z,2.99
2019-03-11T11:28:30.512Z,2.99
2019-03-11T11:29:30.560Z,2.99
2019-03-11T11:30:30.577Z,2.99
2019-03-11T11:31:30.534Z,3.30
2019-03-11T11:32:30.635Z,3.30
2019-03-11T11:33:30.578Z,3.30
2019-03-11T11:34:30.593Z,3.30
2019-03-11T11:35:30.587Z,3.30
2019-03-11T11:36:30.620Z,3.30
2019-03-11T11:37:30.604Z,3.30
2019-03-11T11:38:30.516Z,3.30
2019-03-11T11:39:30.530Z,3.30
2019-03-11T11:40:30.585Z,3.30
2019-03-11T11:41:30.530Z,3.99
2019-03-11T11:42:30.597Z,3.99
2019-03-11T11:43:30.526Z,3.99
2019-03-11T11:44:30.563Z,3.99
2019-03-11T11:45:30.652Z,3.99
2019-03-11T11:46:30.520Z,3.99
2019-03-11T11:47:30.532Z,3.99
2019-03-11T11:48:30.590Z,3.99
2019-03-11T11:49:30.570Z,3.99
2019-03-11T11:50:30.531Z,3.99
2019-03-11T11:51:30.593Z,2.70
2019-03-11T11:52:30.554Z,2.70
2019-03-11T11:53:30.526Z,2.70
2019-03-11T11:54:30.598Z,2.70
2019-03-11T11:55:30.528Z,2.70
2019-03-11T11:56:30.532Z,2.70
2019-03-11T11:57:30.600Z,2.70
2019-03-11T11:58:30.600Z,2.70
2019-03-11T11:59:30.603Z,2.70
2019-03-11T12:00:30.611Z,2.70
2019-03-11T12:01:30.603Z,2.70
2019-03-11T12:02:30.603Z,3.30
2019-03-11T12:03:30.539Z,3.30
2019-03-11T12:04:30.538Z,3.30
2019-03-11T12:05:30.541Z,3.30
2019-03-11T12:06:30.605Z,3.30
2019-03-11T12:07:30.738Z,3.30
2019-03-11T12:08:30.542Z,3.30
2019-03-11T12:09:30.606Z,3.30
2019-03-11T12:10:30.551Z,3.30
2019-03-11T12:11:30.611Z,3.30
2019-03-11T12:12:30.510Z,3.80
2019-03-11T12:13:30.488Z,3.80
2019-03-11T12:14:30.552Z,3.80
2019-03-11T12:15:30.604Z,3.80
2019-03-11T12:16:30.606Z,3.80
2019-03-11T12:17:30.518Z,3.80
2019-03-11T12:18:30.611Z,3.80
2019-03-11T12:19:30.518Z,3.80
2019-03-11T12:20:30.611Z,3.80
2019-03-11T12:21:30.608Z,3.80
2019-03-11T12:22:30.514Z,4.50
2019-03-11T12:23:30.543Z,4.50
2019-03-11T12:24:30.572Z,4.50
2019-03-11T12:25:30.586Z,4.50
2019-03-11T12:26:30.478Z,4.50
2019-03-11T12:27:30.477Z,4.50
2019-03-11T12:28:30.596Z,4.50
2019-03-11T12:29:30.529Z,4.50
2019-03-11T12:30:30.479Z,4.50
2019-03-11T12:31:30.542Z,4.50
2019-03-11T12:32:30.621Z,3.20
2019-03-11T12:33:30.559Z,3.20
2019-03-11T12:34:30.556Z,3.20
2019-03-11T12:35:30.559Z,3.20
2019-03-11T12:36:30.558Z,3.20
2019-03-11T12:37:30.628Z,3.20
2019-03-11T12:38:30.634Z,3.20
2019-03-11T12:39:30.578Z,3.20
2019-03-11T12:40:30.633Z,3.20
2019-03-11T12:41:30.564Z,3.20
2019-03-11T12:42:30.624Z,3.20
2019-03-11T12:43:30.620Z,3.20
2019-03-11T12:44:30.538Z,3.20
2019-03-11T12:45:30.592Z,3.20
2019-03-11T12:46:30.557Z,3.20
2019-03-11T12:47:30.589Z,3.20
2019-03-11T12:48:30.621Z,3.20
2019-03-11T12:49:30.516Z,3.20
2019-03-11T12:50:30.578Z,3.20
2019-03-11T12:51:30.543Z,3.20
2019-03-11T12:52:30.681Z,3.70
2019-03-11T12:53:30.568Z,3.70
2019-03-11T12:54:30.569Z,3.70
2019-03-11T12:55:30.646Z,3.70
2019-03-11T12:56:30.761Z,3.70
2019-03-11T12:57:30.585Z,3.70
2019-03-11T12:58:40.722Z,3.70
2019-03-11T12:59:30.576Z,3.70
2019-03-11T13:00:30.646Z,3.70
2019-03-11T13:01:30.588Z,3.70
2019-03-11T13:02:30.637Z,3.20
2019-03-11T13:03:30.643Z,3.20
2019-03-11T13:04:30.570Z,3.20
2019-03-11T13:05:30.639Z,3.20
2019-03-11T13:06:30.642Z,3.20
2019-03-11T13:07:30.521Z,3.20
2019-03-11T13:08:30.639Z,3.20
2019-03-11T13:09:30.573Z,3.20
2019-03-11T13:10:30.595Z,3.20
2019-03-11T13:11:30.560Z,3.20
2019-03-11T13:12:30.654Z,4.40
2019-03-11T13:13:30.582Z,4.40
2019-03-11T13:14:30.620Z,4.40
2019-03-11T13:15:30.649Z,4.40
2019-03-11T13:16:30.592Z,4.40
2019-03-11T13:17:30.660Z,4.40
2019-03-11T13:18:33.002Z,4.40
2019-03-11T13:19:30.657Z,4.40